Aeroporto :
LOGIN :

Iscrizione | Disclaimer

   EN    FR    IT 

 










Sommario :    VFR   VFR Marginale   IFR   IFR Intensivo   IFR Molto Intensivo
Visibilità : 
Base nubi : 
>= 8 km
>= 3000ft
5 / 8 km
1000 / 3000 ft
1500m / 5 km
500 / 1000 ft
800 / 1500m
200 / 500 ft
< 800m
< 200 ft
Simboli :   Temporali  Nebbia  Neve Forte  Precipitazioni Forti  Vento > 20 kt
SIGMETs :   Varie  Temporali  Ghiacco  Turbolenza  Onda orograficha  Ceneri Vulcaniche







- Altitudine del aeroporto : 13 ft
- Codice IATA : GOA


LIMJ - Genoa Cristoforo Colombo

ULTIMO METAR :
  • 191420Z VRB02KT 9999 RADZ FEW013 SCT016TCU BKN028 BKN060 15/13 Q1005

METARs OBSOLETI :
  • 191350Z 30005KT 9999 -DZ FEW013 FEW016TCU BKN028 BKN060 15/12 Q1005
  • 191320Z 24007KT 9999 FEW013 FEW016TCU SCT028 BKN060 15/12 Q1004
  • 191250Z 23007KT 210V280 9999 SCT016TCU SCT034 SCT060 16/12 Q1004
  • 191220Z 22005KT 9999 FEW010 FEW017TCU SCT034 BKN060 17/12 Q1004
  • 191150Z 23005KT 9999 FEW010 FEW017TCU SCT034 BKN060 17/12 Q1004

TAF TAF LIMJ
Valido dal 19 a 12 ore il 20 a 12 ore UTC


191100Z 1912/2012 27008KT 9999 BKN025 BKN060
TEMPO 1912/2012 RA
BECMG 1920/1922 13012KT
PROB40
TEMPO 1920/2006 4000 SHRA
BECMG 2004/2006 20015KT
Nessun NOTAM noto per questo aeroporto.
1 SIGMET conosciuto per la FIR Milano (LIMM) :
 
Temporali frequenti
LIMM SIGMET 1 VALID 191230/191500 LIIP
LIMM MILANO FIR FRQ TS OBS WI N4526 E01214 - N4511 E01109 - N4424 E01116 - N4334 E01246 - N4331 E01350 - N4416 E01224 - N4452 E01230 - N4526 E01214 TOP FL290 STNR NC=



MetMap, La meteo Aeronautica in un colpo d'occhio ! - Copyright ORBIFLY Dicembre 2007 - Disclaimer

ORBIFLY MET'MAP TEAM :

Programmazione e sviluppo : Alexandra Zaïnal
Concezione e sviluppo : Baudouin d'Aumeries
Co-Programmazione e sviluppo : Marc-Olivier Méhu
Supporto tecnico e logistico : Manuel Goepfert
Aiuto per la traduzione : Arnaldo La Scala

Contatto : metmap@orbifly.com




FONTI E CREDITI :

   NOAA